Time;durP1;ratioP1;P1;durP2;ratioP2;P2;SDS_P1;SDS_P2;PMS_P1;PMS_P2;Temp;Humidity;BMP_temperature;BMP_pressure;BME280_temperature;BME280_humidity;BME280_pressure;Samples;Min_cycle;Max_cycle;Signal;HPM_P1;HPM_P2
2022/04/23 00:07:53;;;;;;;4.82;1.73;;;12.80;99.90;;;;;;20907905;28;20051;-39
2022/04/23 00:17:55;;;;;;;3.85;1.50;;;12.80;99.90;;;;;;20912833;28;20041;-39
2022/04/23 00:27:56;;;;;;;3.45;1.27;;;12.70;99.90;;;;;;20904192;28;20041;-39
2022/04/23 00:37:57;;;;;;;3.40;1.42;;;12.60;99.90;;;;;;20893024;28;20540;-39
2022/04/23 00:47:58;;;;;;;3.78;1.40;;;12.50;99.90;;;;;;20909045;28;20076;-39
2022/04/23 00:58:00;;;;;;;4.03;2.17;;;12.50;99.90;;;;;;20925759;28;20047;-39
2022/04/23 01:08:04;;;;;;;5.03;2.10;;;12.40;99.90;;;;;;20904975;28;20052;-39
2022/04/23 01:18:05;;;;;;;3.70;1.63;;;12.30;99.90;;;;;;20934675;28;20423;-39
2022/04/23 01:28:08;;;;;;;4.32;2.03;;;12.20;99.90;;;;;;20916872;28;20526;-39
2022/04/23 01:38:09;;;;;;;3.55;1.75;;;12.10;99.90;;;;;;20911278;28;20037;-39
2022/04/23 01:48:10;;;;;;;5.53;2.40;;;12.00;99.90;;;;;;20906725;28;20045;-39
2022/04/23 01:58:11;;;;;;;6.43;2.47;;;11.90;99.90;;;;;;20929242;28;20043;-39
2022/04/23 02:08:16;;;;;;;5.43;2.08;;;11.90;99.90;;;;;;20924396;28;20507;-39
2022/04/23 02:18:17;;;;;;;5.50;2.78;;;11.70;99.90;;;;;;20892972;28;20059;-39
2022/04/23 02:28:19;;;;;;;6.10;2.83;;;11.60;99.90;;;;;;20912742;28;20051;-39
2022/04/23 02:38:20;;;;;;;5.32;2.58;;;11.60;99.90;;;;;;20878832;28;20045;-39
2022/04/23 02:48:21;;;;;;;7.95;3.53;;;11.60;99.90;;;;;;20905607;28;20041;-39
2022/04/23 02:58:26;;;;;;;11.30;3.42;;;11.60;99.90;;;;;;20912184;28;20511;-39
2022/04/23 03:08:27;;;;;;;7.45;3.25;;;11.70;99.90;;;;;;20900747;28;20052;-42
2022/04/23 03:18:28;;;;;;;4.80;2.95;;;11.70;99.90;;;;;;20894214;28;20033;-39
2022/04/23 03:28:29;;;;;;;6.53;3.70;;;11.70;99.90;;;;;;20887244;28;20404;-39
2022/04/23 03:38:31;;;;;;;8.23;3.80;;;11.70;99.90;;;;;;20882490;28;20044;-39
2022/04/23 03:48:32;;;;;;;17.60;4.00;;;11.70;99.90;;;;;;20891861;28;20501;-39
2022/04/23 03:58:33;;;;;;;7.55;3.60;;;11.60;99.90;;;;;;20885852;28;20037;-39
2022/04/23 04:08:34;;;;;;;9.85;5.30;;;11.50;99.90;;;;;;20908586;28;20036;-39
2022/04/23 04:18:36;;;;;;;7.95;4.05;;;11.30;99.90;;;;;;20907682;28;20459;-39
2022/04/23 04:28:37;;;;;;;10.30;4.00;;;11.20;99.90;;;;;;20927672;28;20040;-39
2022/04/23 04:38:39;;;;;;;8.35;3.97;;;11.00;99.90;;;;;;20914149;28;20269;-39
2022/04/23 04:48:40;;;;;;;8.20;4.18;;;11.00;99.90;;;;;;20914797;28;20060;-39
2022/04/23 04:58:43;;;;;;;9.32;4.53;;;11.00;99.90;;;;;;20917482;28;20404;-39
2022/04/23 05:08:45;;;;;;;9.85;4.57;;;10.90;99.90;;;;;;20914287;28;20045;-39
2022/04/23 05:18:46;;;;;;;11.15;4.65;;;10.90;99.90;;;;;;20897430;28;20122;-39
2022/04/23 05:28:48;;;;;;;8.63;4.22;;;10.80;99.90;;;;;;20888750;28;20051;-39
2022/04/23 05:38:49;;;;;;;12.20;4.20;;;11.00;99.90;;;;;;20858682;28;20039;-39
2022/04/23 05:48:50;;;;;;;10.30;4.82;;;11.20;99.90;;;;;;20829550;28;20420;-39
2022/04/23 05:58:51;;;;;;;8.77;3.67;;;11.50;99.90;;;;;;20844978;28;20051;-39
2022/04/23 06:08:52;;;;;;;8.98;3.58;;;11.60;99.90;;;;;;20816044;28;20045;-39
2022/04/23 06:18:53;;;;;;;7.75;3.47;;;11.70;99.90;;;;;;20835714;28;20025;-39
2022/04/23 06:28:55;;;;;;;8.70;3.80;;;12.00;99.90;;;;;;20837537;28;20036;-39
2022/04/23 06:38:56;;;;;;;6.40;2.70;;;12.30;99.90;;;;;;20834956;28;20388;-39
2022/04/23 06:49:00;;;;;;;7.63;3.83;;;12.50;99.90;;;;;;20827441;28;20478;-39
2022/04/23 06:59:01;;;;;;;6.78;3.42;;;12.70;99.90;;;;;;20801815;28;20064;-39
2022/04/23 07:09:03;;;;;;;7.82;3.53;;;12.70;99.90;;;;;;20814819;28;20290;-39
2022/04/23 07:19:07;;;;;;;9.75;3.40;;;12.90;99.90;;;;;;20804625;28;20262;-39
2022/04/23 07:29:10;;;;;;;9.48;3.35;;;13.10;99.90;;;;;;20826079;28;20041;-39
2022/04/23 07:39:11;;;;;;;8.10;3.85;;;13.50;99.90;;;;;;20827235;28;20496;-39
2022/04/23 07:49:13;;;;;;;6.75;3.10;;;13.50;99.90;;;;;;20829871;28;20454;-41
2022/04/23 07:59:14;;;;;;;10.10;4.82;;;13.60;99.90;;;;;;20841056;28;20044;-41
2022/04/23 08:09:15;;;;;;;6.22;3.40;;;13.80;99.90;;;;;;20793535;28;20045;-40
2022/04/23 08:19:17;;;;;;;8.93;4.30;;;14.00;99.90;;;;;;20818228;28;21013;-38
2022/04/23 08:39:42;;;;;;;7.43;3.42;;;14.50;99.90;;;;;;20846697;28;20040;-38
2022/04/23 08:49:43;;;;;;;9.45;3.60;;;14.70;99.90;;;;;;20856998;28;20682;-38
2022/04/23 08:59:51;;;;;;;9.00;4.05;;;14.90;99.90;;;;;;20850401;28;20033;-38
2022/04/23 09:09:55;;;;;;;6.25;3.20;;;15.10;99.90;;;;;;20912253;28;20393;-38
2022/04/23 09:30:17;;;;;;;6.10;2.72;;;15.80;99.90;;;;;;20906729;28;20486;-38
2022/04/23 09:40:23;;;;;;;7.13;3.42;;;16.00;99.90;;;;;;20917936;28;20044;-38
2022/04/23 09:50:24;;;;;;;7.40;3.70;;;15.60;99.90;;;;;;20899532;28;20044;-38
2022/04/23 10:00:25;;;;;;;6.78;3.13;;;15.60;99.90;;;;;;20897409;28;20047;-38
2022/04/23 10:10:31;;;;;;;6.50;2.83;;;16.20;99.90;;;;;;20904009;28;20044;-38
2022/04/23 10:20:32;;;;;;;10.38;3.63;;;16.80;99.90;;;;;;20912798;28;20048;-38
2022/04/23 10:30:33;;;;;;;5.93;3.00;;;17.50;99.90;;;;;;20926971;28;20044;-38
2022/04/23 10:40:35;;;;;;;7.50;2.65;;;17.50;99.90;;;;;;20927088;28;20492;-39
2022/04/23 10:50:38;;;;;;;5.63;3.03;;;16.90;99.90;;;;;;20886134;28;20044;-38
2022/04/23 11:00:44;;;;;;;6.85;3.10;;;16.80;99.90;;;;;;20887945;28;20539;-39
2022/04/23 11:21:29;;;;;;;7.35;3.17;;;17.80;99.90;;;;;;20893849;28;20063;-38
2022/04/23 11:31:31;;;;;;;8.20;2.67;;;18.80;99.90;;;;;;20897592;28;20083;-39
2022/04/23 11:41:48;;;;;;;7.53;3.60;;;19.20;99.90;;;;;;20899293;28;20032;-39
2022/04/23 11:51:49;;;;;;;4.82;2.80;;;18.80;99.60;;;;;;20893368;28;20493;-39
2022/04/23 12:01:50;;;;;;;8.18;3.75;;;19.50;98.70;;;;;;20887149;28;20417;-39
2022/04/23 12:11:59;;;;;;;8.07;3.85;;;19.00;98.90;;;;;;20886587;28;20044;-38
2022/04/23 12:22:00;;;;;;;7.32;3.67;;;19.20;99.50;;;;;;20890006;28;21849;-39
2022/04/23 12:42:21;;;;;;;6.05;2.92;;;20.00;96.70;;;;;;20929246;28;20039;-39
2022/04/23 12:52:25;;;;;;;7.30;3.60;;;20.10;98.30;;;;;;20949969;28;20040;-39
2022/04/23 13:02:37;;;;;;;9.00;3.75;;;20.60;96.00;;;;;;20943479;28;20040;-38
2022/04/23 13:12:38;;;;;;;7.38;3.25;;;20.60;95.80;;;;;;20928543;28;20044;-38
2022/04/23 13:22:41;;;;;;;7.65;3.45;;;20.80;95.20;;;;;;20946401;28;20036;-39
2022/04/23 13:32:42;;;;;;;6.90;3.15;;;21.10;94.70;;;;;;20921792;28;20599;-39
2022/04/23 13:42:44;;;;;;;5.53;3.00;;;21.20;95.20;;;;;;20924005;28;20033;-38
2022/04/23 13:52:45;;;;;;;6.82;2.80;;;21.20;93.40;;;;;;20947427;28;20044;-39
2022/04/23 14:13:05;;;;;;;7.65;3.45;;;20.60;93.80;;;;;;20923844;28;20553;-38
2022/04/23 14:23:06;;;;;;;5.35;2.90;;;20.30;94.10;;;;;;20918864;28;20035;-39
2022/04/23 14:33:08;;;;;;;6.68;2.72;;;20.00;94.70;;;;;;20931247;28;20051;-39
2022/04/23 14:43:09;;;;;;;7.47;2.55;;;19.70;94.70;;;;;;20911323;28;20048;-38
2022/04/23 14:53:10;;;;;;;6.18;2.33;;;20.00;93.70;;;;;;20933888;28;20627;-38
2022/04/23 15:03:12;;;;;;;4.60;2.25;;;19.40;94.20;;;;;;20917018;28;20154;-39
2022/04/23 15:13:13;;;;;;;4.40;2.08;;;19.70;93.40;;;;;;20934846;28;20787;-40
2022/04/23 15:23:15;;;;;;;3.63;1.75;;;19.50;93.10;;;;;;20905268;28;20064;-38
2022/04/23 15:33:16;;;;;;;3.58;1.98;;;19.50;93.70;;;;;;20893327;28;20037;-39
2022/04/23 15:43:17;;;;;;;5.90;2.35;;;19.50;94.20;;;;;;20900134;28;20041;-38
2022/04/23 15:53:20;;;;;;;5.22;2.00;;;19.60;93.90;;;;;;20924298;28;20488;-38
2022/04/23 16:03:24;;;;;;;3.38;1.80;;;19.20;93.60;;;;;;20879879;28;20049;-39
2022/04/23 16:13:26;;;;;;;5.45;2.42;;;18.80;94.40;;;;;;20931085;28;20052;-39
2022/04/23 16:23:27;;;;;;;6.57;2.17;;;19.00;93.50;;;;;;20925990;28;20032;-39
2022/04/23 16:33:28;;;;;;;3.88;2.30;;;18.90;93.30;;;;;;20919974;28;20409;-38
2022/04/23 16:53:50;;;;;;;5.30;2.10;;;18.60;94.00;;;;;;20943336;28;20044;-39
2022/04/23 17:03:51;;;;;;;7.35;3.60;;;18.30;94.00;;;;;;20895219;28;20480;-39
2022/04/23 17:13:52;;;;;;;4.03;1.98;;;18.30;93.90;;;;;;20913172;28;20040;-39
2022/04/23 17:23:53;;;;;;;4.93;2.00;;;18.30;93.60;;;;;;20934008;28;20558;-39
2022/04/23 17:33:54;;;;;;;5.95;3.13;;;18.00;94.10;;;;;;20923060;28;20040;-39
2022/04/23 17:43:58;;;;;;;3.63;1.83;;;18.00;93.70;;;;;;20919591;28;20485;-39
2022/04/23 17:54:00;;;;;;;6.30;2.47;;;17.70;94.20;;;;;;20923816;28;20048;-39
2022/04/23 18:14:20;;;;;;;4.13;1.92;;;17.40;94.20;;;;;;20898019;28;20052;-39
2022/04/23 18:24:23;;;;;;;5.55;2.20;;;17.30;94.30;;;;;;20921720;28;20037;-39
2022/04/23 18:34:24;;;;;;;3.58;1.55;;;17.20;94.40;;;;;;20902339;28;20033;-39
2022/04/23 18:44:25;;;;;;;4.80;1.60;;;16.80;95.40;;;;;;20925459;28;20571;-39
2022/04/23 18:54:26;;;;;;;4.18;1.83;;;16.70;95.00;;;;;;20911340;28;20041;-39
2022/04/23 19:04:29;;;;;;;5.18;1.85;;;16.70;96.00;;;;;;20943360;28;20044;-39
2022/04/23 19:14:30;;;;;;;2.88;1.35;;;16.50;94.90;;;;;;20922879;28;20507;-39
2022/04/23 19:34:51;;;;;;;5.32;1.85;;;16.10;95.50;;;;;;20952299;28;20048;-39
2022/04/23 19:44:52;;;;;;;3.70;1.30;;;15.90;95.10;;;;;;20916624;28;20137;-39
2022/04/23 19:54:54;;;;;;;2.90;1.65;;;15.60;95.40;;;;;;20913475;28;20040;-39
2022/04/23 20:04:55;;;;;;;3.60;1.40;;;15.20;95.80;;;;;;20938697;28;20052;-39
2022/04/23 20:14:56;;;;;;;2.25;1.30;;;15.00;96.20;;;;;;20931221;28;20063;-39
2022/04/23 20:24:57;;;;;;;3.17;1.42;;;14.80;96.50;;;;;;20920951;28;20040;-39
2022/04/23 20:45:18;;;;;;;3.08;1.27;;;14.50;96.10;;;;;;20899574;28;20036;-39
2022/04/23 20:55:19;;;;;;;1.95;0.90;;;14.60;95.80;;;;;;20911408;28;20045;-39
2022/04/23 21:05:22;;;;;;;4.53;1.90;;;14.60;95.00;;;;;;20918006;28;20056;-39
2022/04/23 21:15:25;;;;;;;3.65;1.10;;;14.70;94.70;;;;;;20915507;28;20127;-39
2022/04/23 21:25:26;;;;;;;2.55;1.02;;;14.70;94.60;;;;;;20908576;28;20025;-38
2022/04/23 21:35:27;;;;;;;2.05;0.95;;;14.60;94.70;;;;;;20917087;28;20040;-39
2022/04/23 21:45:31;;;;;;;2.33;1.10;;;14.40;95.10;;;;;;20923936;28;20021;-39
2022/04/23 21:55:33;;;;;;;2.55;1.13;;;14.30;95.20;;;;;;20918741;28;20175;-39
2022/04/23 22:05:37;;;;;;;3.95;1.38;;;14.20;95.40;;;;;;20908440;28;20045;-39
2022/04/23 22:15:38;;;;;;;3.03;1.58;;;14.00;96.30;;;;;;20910407;28;20044;-39
2022/04/23 22:25:39;;;;;;;2.50;1.50;;;13.90;95.80;;;;;;20914635;28;20040;-38
2022/04/23 22:35:40;;;;;;;2.47;1.45;;;13.90;95.90;;;;;;20900990;28;20036;-39
2022/04/23 22:45:42;;;;;;;2.55;0.82;;;13.70;97.10;;;;;;20907365;28;20040;-39
2022/04/23 22:55:43;;;;;;;3.03;1.05;;;13.40;97.60;;;;;;20912892;28;20047;-39
2022/04/23 23:05:45;;;;;;;2.40;1.15;;;13.40;97.50;;;;;;20899636;28;20047;-39
2022/04/23 23:15:46;;;;;;;3.75;2.55;;;13.20;98.10;;;;;;20906355;28;20412;-39
2022/04/23 23:25:47;;;;;;;3.00;1.13;;;13.00;98.50;;;;;;20903698;28;20403;-39
2022/04/23 23:35:48;;;;;;;2.22;1.00;;;12.80;98.90;;;;;;20902965;28;20041;-38
2022/04/23 23:45:50;;;;;;;2.85;0.95;;;12.70;99.00;;;;;;20902000;28;20033;-38
2022/04/23 23:55:51;;;;;;;2.50;1.42;;;12.50;99.60;;;;;;20911955;28;20044;-39
